createdAt,value
2023-04-02T00:00:36.389Z,95077.00
2023-04-02T00:01:36.342Z,95073.00
2023-04-02T00:02:37.469Z,95079.00
2023-04-02T00:03:37.519Z,95071.00
2023-04-02T00:04:36.473Z,95073.00
2023-04-02T00:05:37.774Z,95081.00
2023-04-02T00:06:36.556Z,95077.00
2023-04-02T00:07:37.593Z,95077.00
2023-04-02T00:08:37.630Z,95077.00
2023-04-02T00:09:37.678Z,95077.00
2023-04-02T00:10:37.715Z,95077.00
2023-04-02T00:11:36.768Z,95077.00
2023-04-02T00:12:37.849Z,95075.00
2023-04-02T00:13:37.869Z,95077.00
2023-04-02T00:14:37.911Z,95077.00
2023-04-02T00:15:37.957Z,95075.00
2023-04-02T00:16:37.056Z,95077.00
2023-04-02T00:17:38.077Z,95079.00
2023-04-02T00:18:37.141Z,95083.00
2023-04-02T00:19:37.166Z,95081.00
2023-04-02T00:20:38.198Z,95083.00
2023-04-02T00:21:39.889Z,95083.00
2023-04-02T00:22:37.240Z,95085.00
2023-04-02T00:23:38.308Z,95085.00
2023-04-02T00:24:38.228Z,95081.00
2023-04-02T00:25:37.301Z,95083.00
2023-04-02T00:26:38.214Z,95083.00
2023-04-02T00:27:38.211Z,95085.00
2023-04-02T00:28:38.201Z,95085.00
2023-04-02T00:29:38.274Z,95085.00
2023-04-02T00:30:37.174Z,95086.00
2023-04-02T00:31:37.186Z,95090.00
2023-04-02T00:32:37.190Z,95090.00
2023-04-02T00:33:38.164Z,95094.00
2023-04-02T00:34:37.191Z,95094.00
2023-04-02T00:35:38.194Z,95096.00
2023-04-02T00:36:37.134Z,95096.00
2023-04-02T00:37:37.128Z,95098.00
2023-04-02T00:38:37.115Z,95098.00
2023-04-02T00:39:38.133Z,95096.00
2023-04-02T00:40:38.124Z,95098.00
2023-04-02T00:41:37.128Z,95098.00
2023-04-02T00:42:37.102Z,95098.00
2023-04-02T00:43:38.083Z,95098.00
2023-04-02T00:44:38.102Z,95098.00
2023-04-02T00:45:38.081Z,95096.00
2023-04-02T00:46:38.061Z,95096.00
2023-04-02T00:47:37.102Z,95094.00
2023-04-02T00:48:37.048Z,95094.00
2023-04-02T00:49:38.046Z,95096.00
2023-04-02T00:50:38.124Z,95094.00
2023-04-02T00:51:38.170Z,95096.00
2023-04-02T00:52:37.192Z,95092.00
2023-04-02T00:53:38.253Z,95094.00
2023-04-02T00:54:38.307Z,95092.00
2023-04-02T00:55:38.356Z,95094.00
2023-04-02T00:56:37.416Z,95094.00
2023-04-02T00:57:38.467Z,95092.00
2023-04-02T00:58:38.512Z,95092.00
2023-04-02T00:59:38.569Z,95094.00
2023-04-02T01:00:38.618Z,95092.00
2023-04-02T01:01:37.752Z,95094.00
2023-04-02T01:02:38.806Z,95094.00
2023-04-02T01:03:38.092Z,95092.00
2023-04-02T01:04:37.788Z,95090.00
2023-04-02T01:05:38.865Z,95090.00
2023-04-02T01:06:38.905Z,95090.00
2023-04-02T01:07:38.924Z,95092.00
2023-04-02T01:08:38.972Z,95090.00
2023-04-02T01:09:39.010Z,95092.00
2023-04-02T01:10:38.068Z,95094.00
2023-04-02T01:11:39.107Z,95096.00
2023-04-02T01:12:39.181Z,95096.00
2023-04-02T01:13:39.211Z,95094.00
2023-04-02T01:14:38.250Z,95092.00
2023-04-02T01:15:38.628Z,95094.00
2023-04-02T01:16:39.353Z,95092.00
2023-04-02T01:17:39.434Z,95092.00
2023-04-02T01:18:38.497Z,95092.00
2023-04-02T01:19:39.516Z,95094.00
2023-04-02T01:20:39.550Z,95094.00
2023-04-02T01:21:38.603Z,95096.00
2023-04-02T01:22:39.666Z,95098.00
2023-04-02T01:23:38.681Z,95102.00
2023-04-02T01:24:39.757Z,95104.00
2023-04-02T01:25:39.779Z,95102.00
2023-04-02T01:26:38.841Z,95102.00
2023-04-02T01:27:38.855Z,95096.00
2023-04-02T01:28:39.921Z,95098.00
2023-04-02T01:29:39.963Z,95096.00
2023-04-02T01:30:40.012Z,95092.00
2023-04-02T01:31:40.117Z,95092.00
2023-04-02T01:32:40.151Z,95094.00
2023-04-02T01:33:39.141Z,95094.00
2023-04-02T01:34:40.199Z,95096.00
2023-04-02T01:35:40.267Z,95098.00
2023-04-02T01:36:40.315Z,95098.00
2023-04-02T01:37:40.400Z,95100.00
2023-04-02T01:38:40.449Z,95104.00
2023-04-02T01:39:40.471Z,95102.00
2023-04-02T01:40:39.522Z,95104.00
2023-04-02T01:41:40.586Z,95104.00
2023-04-02T01:42:40.629Z,95106.00
2023-04-02T01:43:39.672Z,95108.00
2023-04-02T01:44:40.731Z,95110.00
2023-04-02T01:45:40.772Z,95112.00
2023-04-02T01:46:39.884Z,95114.00
2023-04-02T01:47:40.966Z,95112.00
2023-04-02T01:48:40.935Z,95112.00
2023-04-02T01:49:40.973Z,95114.00
2023-04-02T01:50:41.025Z,95114.00
2023-04-02T01:51:41.063Z,95114.00
2023-04-02T01:52:41.221Z,95118.00
2023-04-02T01:53:41.170Z,95116.00
2023-04-02T01:54:41.243Z,95116.00
2023-04-02T01:55:41.285Z,95114.00
2023-04-02T01:56:41.354Z,95118.00
2023-04-02T01:57:40.405Z,95116.00
2023-04-02T01:58:41.460Z,95122.00
2023-04-02T01:59:41.538Z,95120.00
2023-04-02T02:00:41.643Z,95124.00
2023-04-02T02:01:42.229Z,95127.00
2023-04-02T02:02:41.753Z,95124.00
2023-04-02T02:03:40.777Z,95127.00
2023-04-02T02:04:40.833Z,95127.00
2023-04-02T02:05:41.875Z,95125.00
2023-04-02T02:06:41.916Z,95127.00
2023-04-02T02:07:41.970Z,95125.00
2023-04-02T02:08:42.025Z,95127.00
2023-04-02T02:09:42.097Z,95129.00
2023-04-02T02:10:42.157Z,95127.00
2023-04-02T02:11:42.208Z,95129.00
2023-04-02T02:12:42.265Z,95129.00
2023-04-02T02:13:42.326Z,95135.00
2023-04-02T02:14:42.368Z,95131.00
2023-04-02T02:15:42.446Z,95137.00
2023-04-02T02:16:41.725Z,95133.00
2023-04-02T02:17:42.581Z,95131.00
2023-04-02T02:18:41.635Z,95131.00
2023-04-02T02:19:41.665Z,95131.00
2023-04-02T02:20:42.713Z,95131.00
2023-04-02T02:21:42.768Z,95127.00
2023-04-02T02:22:42.835Z,95127.00
2023-04-02T02:23:41.888Z,95129.00
2023-04-02T02:24:41.964Z,95129.00
2023-04-02T02:25:42.999Z,95125.00
2023-04-02T02:26:43.084Z,95127.00
2023-04-02T02:27:42.139Z,95125.00
2023-04-02T02:28:42.195Z,95125.00
2023-04-02T02:29:43.238Z,95131.00
2023-04-02T02:30:42.301Z,95131.00
2023-04-02T02:31:42.386Z,95135.00
2023-04-02T02:32:43.495Z,95135.00
2023-04-02T02:33:42.490Z,95141.00
2023-04-02T02:34:43.560Z,95139.00
2023-04-02T02:35:43.641Z,95145.00
2023-04-02T02:36:42.690Z,95143.00
2023-04-02T02:37:43.750Z,95145.00
2023-04-02T02:38:43.806Z,95145.00
2023-04-02T02:39:43.855Z,95145.00
2023-04-02T02:40:43.917Z,95145.00
2023-04-02T02:41:43.987Z,95145.00
2023-04-02T02:42:44.051Z,95145.00
2023-04-02T02:43:44.107Z,95145.00
2023-04-02T02:44:44.153Z,95155.00
2023-04-02T02:45:43.232Z,95157.00
2023-04-02T02:46:44.264Z,95157.00
2023-04-02T02:47:44.364Z,95157.00
2023-04-02T02:48:44.432Z,95157.00
2023-04-02T02:49:44.473Z,95157.00
2023-04-02T02:50:43.519Z,95159.00
2023-04-02T02:51:43.564Z,95157.00
2023-04-02T02:52:44.627Z,95155.00
2023-04-02T02:53:44.720Z,95155.00
2023-04-02T02:54:43.748Z,95155.00
2023-04-02T02:55:44.813Z,95157.00
2023-04-02T02:56:44.876Z,95157.00
2023-04-02T02:57:44.936Z,95159.00
2023-04-02T02:58:45.058Z,95161.00
2023-04-02T02:59:45.090Z,95161.00
2023-04-02T03:00:45.127Z,95161.00
2023-04-02T03:01:45.253Z,95163.00
2023-04-02T03:02:45.421Z,95163.00
2023-04-02T03:03:44.577Z,95165.00
2023-04-02T03:04:45.366Z,95169.00
2023-04-02T03:05:45.447Z,95169.00
2023-04-02T03:06:45.494Z,95171.00
2023-04-02T03:07:44.569Z,95173.00
2023-04-02T03:08:44.631Z,95171.00
2023-04-02T03:09:45.687Z,95175.00
2023-04-02T03:10:45.750Z,95177.00
2023-04-02T03:11:44.834Z,95177.00
2023-04-02T03:12:45.892Z,95177.00
2023-04-02T03:13:45.943Z,95178.00
2023-04-02T03:14:46.035Z,95177.00
2023-04-02T03:15:46.086Z,95178.00
2023-04-02T03:16:45.134Z,95180.00
2023-04-02T03:17:45.270Z,95178.00
2023-04-02T03:18:46.277Z,95182.00
2023-04-02T03:19:46.325Z,95182.00
2023-04-02T03:20:46.378Z,95182.00
2023-04-02T03:21:45.434Z,95186.00
2023-04-02T03:22:46.497Z,95184.00
2023-04-02T03:23:46.592Z,95186.00
2023-04-02T03:24:46.627Z,95190.00
2023-04-02T03:25:45.695Z,95190.00
2023-04-02T03:26:45.746Z,95192.00
2023-04-02T03:27:46.815Z,95190.00
2023-04-02T03:28:46.886Z,95190.00
2023-04-02T03:29:46.943Z,95190.00
2023-04-02T03:30:47.021Z,95192.00
2023-04-02T03:31:47.104Z,95190.00
2023-04-02T03:32:46.130Z,95190.00
2023-04-02T03:33:47.201Z,95190.00
2023-04-02T03:34:47.239Z,95190.00
2023-04-02T03:35:47.332Z,95190.00
2023-04-02T03:36:47.398Z,95190.00
2023-04-02T03:37:47.427Z,95190.00
2023-04-02T03:38:47.522Z,95192.00
2023-04-02T03:39:47.560Z,95190.00
2023-04-02T03:40:47.621Z,95190.00
2023-04-02T03:41:46.672Z,95192.00
2023-04-02T03:42:46.750Z,95186.00
2023-04-02T03:43:47.817Z,95190.00
2023-04-02T03:44:47.858Z,95188.00
2023-04-02T03:45:47.923Z,95190.00
2023-04-02T03:46:48.116Z,95190.00
2023-04-02T03:47:48.075Z,95190.00
2023-04-02T03:48:48.123Z,95188.00
2023-04-02T03:49:48.188Z,95188.00
2023-04-02T03:50:48.229Z,95190.00
2023-04-02T03:51:48.320Z,95190.00
2023-04-02T03:52:48.331Z,95192.00
2023-04-02T03:53:48.428Z,95194.00
2023-04-02T03:54:53.856Z,95198.00
2023-04-02T03:55:48.454Z,95200.00
2023-04-02T03:56:47.532Z,95202.00
2023-04-02T03:57:47.428Z,95202.00
2023-04-02T03:58:48.445Z,95204.00
2023-04-02T03:59:48.404Z,95206.00
2023-04-02T04:00:48.437Z,95208.00
2023-04-02T04:01:48.451Z,95208.00
2023-04-02T04:02:47.452Z,95208.00
2023-04-02T04:03:47.404Z,95208.00
2023-04-02T04:04:48.380Z,95210.00
2023-04-02T04:05:48.397Z,95214.00
2023-04-02T04:06:48.375Z,95216.00
2023-04-02T04:07:47.354Z,95218.00
2023-04-02T04:08:47.338Z,95218.00
2023-04-02T04:09:47.349Z,95220.00
2023-04-02T04:10:48.349Z,95218.00
2023-04-02T04:11:48.329Z,95218.00
2023-04-02T04:12:48.363Z,95220.00
2023-04-02T04:13:47.301Z,95224.00
2023-04-02T04:14:48.298Z,95224.00
2023-04-02T04:15:48.294Z,95225.00
2023-04-02T04:16:47.356Z,95229.00
2023-04-02T04:17:48.315Z,95227.00
2023-04-02T04:18:47.353Z,95229.00
2023-04-02T04:19:48.372Z,95231.00
2023-04-02T04:20:48.394Z,95231.00
2023-04-02T04:21:48.448Z,95233.00
2023-04-02T04:22:48.517Z,95235.00
2023-04-02T04:23:48.576Z,95233.00
2023-04-02T04:24:48.655Z,95233.00
2023-04-02T04:25:48.682Z,95237.00
2023-04-02T04:26:47.726Z,95241.00
2023-04-02T04:27:48.790Z,95239.00
2023-04-02T04:28:48.885Z,95241.00
2023-04-02T04:29:47.914Z,95245.00
2023-04-02T04:30:48.991Z,95245.00
2023-04-02T04:31:49.086Z,95247.00
2023-04-02T04:32:49.109Z,95251.00
2023-04-02T04:33:49.131Z,95253.00
2023-04-02T04:34:48.212Z,95251.00
2023-04-02T04:35:49.305Z,95255.00
2023-04-02T04:36:49.293Z,95259.00
2023-04-02T04:37:49.335Z,95259.00
2023-04-02T04:38:48.411Z,95261.00
2023-04-02T04:39:49.453Z,95257.00
2023-04-02T04:40:49.498Z,95259.00
2023-04-02T04:41:49.576Z,95261.00
2023-04-02T04:42:48.635Z,95261.00
2023-04-02T04:43:48.660Z,95261.00
2023-04-02T04:44:49.705Z,95263.00
2023-04-02T04:45:48.822Z,95263.00
2023-04-02T04:46:48.821Z,95265.00
2023-04-02T04:47:49.962Z,95265.00
2023-04-02T04:48:48.919Z,95265.00
2023-04-02T04:49:49.980Z,95267.00
2023-04-02T04:50:49.019Z,95267.00
2023-04-02T04:51:50.048Z,95269.00
2023-04-02T04:52:50.076Z,95269.00
2023-04-02T04:53:50.152Z,95271.00
2023-04-02T04:54:50.178Z,95271.00
2023-04-02T04:55:50.228Z,95272.00
2023-04-02T04:56:50.301Z,95271.00
2023-04-02T04:57:50.331Z,95272.00
2023-04-02T04:58:50.402Z,95272.00
2023-04-02T04:59:50.454Z,95269.00
2023-04-02T05:00:50.526Z,95276.00
2023-04-02T05:01:50.708Z,95272.00
2023-04-02T05:02:49.635Z,95274.00
2023-04-02T05:03:50.669Z,95278.00
2023-04-02T05:04:49.783Z,95280.00
2023-04-02T05:05:50.836Z,95280.00
2023-04-02T05:06:50.858Z,95282.00
2023-04-02T05:07:50.951Z,95284.00
2023-04-02T05:08:50.966Z,95286.00
2023-04-02T05:09:51.033Z,95286.00
2023-04-02T05:10:51.108Z,95288.00
2023-04-02T05:11:51.153Z,95290.00
2023-04-02T05:12:51.200Z,95292.00
2023-04-02T05:13:50.270Z,95294.00
2023-04-02T05:14:51.313Z,95296.00
2023-04-02T05:15:51.472Z,95296.00
2023-04-02T05:16:51.411Z,95300.00
2023-04-02T05:17:51.495Z,95302.00
2023-04-02T05:18:50.524Z,95302.00
2023-04-02T05:19:50.594Z,95304.00
2023-04-02T05:20:51.649Z,95306.00
2023-04-02T05:21:51.713Z,95308.00
2023-04-02T05:22:51.773Z,95312.00
2023-04-02T05:23:51.828Z,95310.00
2023-04-02T05:24:51.895Z,95310.00
2023-04-02T05:25:51.934Z,95308.00
2023-04-02T05:26:52.007Z,95312.00
2023-04-02T05:27:52.037Z,95310.00
2023-04-02T05:28:52.064Z,95312.00
2023-04-02T05:29:52.096Z,95314.00
2023-04-02T05:30:51.136Z,95312.00
2023-04-02T05:31:52.250Z,95312.00
2023-04-02T05:32:52.288Z,95318.00
2023-04-02T05:33:52.315Z,95320.00
2023-04-02T05:34:52.372Z,95318.00
2023-04-02T05:35:52.452Z,95320.00
2023-04-02T05:36:51.450Z,95318.00
2023-04-02T05:37:52.511Z,95322.00
2023-04-02T05:38:51.559Z,95318.00
2023-04-02T05:39:52.609Z,95320.00
2023-04-02T05:40:52.676Z,95320.00
2023-04-02T05:41:52.710Z,95322.00
2023-04-02T05:42:52.751Z,95322.00
2023-04-02T05:43:52.820Z,95322.00
2023-04-02T05:44:52.854Z,95322.00
2023-04-02T05:45:52.893Z,95322.00
2023-04-02T05:46:53.185Z,95322.00
2023-04-02T05:47:53.068Z,95322.00
2023-04-02T05:48:52.077Z,95324.00
2023-04-02T05:49:52.109Z,95322.00
2023-04-02T05:50:52.186Z,95324.00
2023-04-02T05:51:53.247Z,95326.00
2023-04-02T05:52:52.292Z,95326.00
2023-04-02T05:53:53.360Z,95324.00
2023-04-02T05:54:53.397Z,95326.00
2023-04-02T05:55:53.437Z,95326.00
2023-04-02T05:56:53.505Z,95327.00
2023-04-02T05:58:13.649Z,95329.00
2023-04-02T05:58:53.591Z,95329.00
2023-04-02T05:59:53.488Z,95331.00
2023-04-02T06:00:52.459Z,95331.00
2023-04-02T06:01:52.478Z,95331.00
2023-04-02T06:02:53.687Z,95331.00
2023-04-02T06:03:53.492Z,95329.00
2023-04-02T06:04:52.430Z,95329.00
2023-04-02T06:05:52.437Z,95329.00
2023-04-02T06:06:52.446Z,95331.00
2023-04-02T06:07:52.417Z,95333.00
2023-04-02T06:08:53.432Z,95335.00
2023-04-02T06:09:53.551Z,95335.00
2023-04-02T06:10:52.405Z,95335.00
2023-04-02T06:11:53.389Z,95333.00
2023-04-02T06:12:53.365Z,95335.00
2023-04-02T06:13:52.363Z,95335.00
2023-04-02T06:14:53.986Z,95335.00
2023-04-02T06:15:53.419Z,95335.00
2023-04-02T06:16:53.466Z,95337.00
2023-04-02T06:17:52.384Z,95337.00
2023-04-02T06:18:52.342Z,95337.00
2023-04-02T06:19:53.388Z,95341.00
2023-04-02T06:20:52.329Z,95339.00
2023-04-02T06:21:52.363Z,95341.00
2023-04-02T06:22:53.353Z,95341.00
2023-04-02T06:23:53.438Z,95343.00
2023-04-02T06:24:53.469Z,95343.00
2023-04-02T06:25:54.493Z,95345.00
2023-04-02T06:26:52.593Z,95351.00
2023-04-02T06:27:53.654Z,95353.00
2023-04-02T06:28:52.732Z,95351.00
2023-04-02T06:29:53.775Z,95353.00
2023-04-02T06:30:52.878Z,95353.00
2023-04-02T06:31:52.898Z,95353.00
2023-04-02T06:32:54.055Z,95355.00
2023-04-02T06:33:54.008Z,95357.00
2023-04-02T06:34:54.120Z,95355.00
2023-04-02T06:35:53.241Z,95357.00
2023-04-02T06:36:53.205Z,95359.00
2023-04-02T06:37:54.293Z,95359.00
2023-04-02T06:38:54.345Z,95359.00
2023-04-02T06:39:54.418Z,95361.00
2023-04-02T06:40:53.474Z,95357.00
2023-04-02T06:41:54.554Z,95359.00
2023-04-02T06:42:53.589Z,95359.00
2023-04-02T06:43:54.650Z,95359.00
2023-04-02T06:44:53.708Z,95359.00
2023-04-02T06:45:54.825Z,95359.00
2023-04-02T06:46:53.863Z,95359.00
2023-04-02T06:47:53.934Z,95361.00
2023-04-02T06:48:54.966Z,95363.00
2023-04-02T06:49:55.030Z,95365.00
2023-04-02T06:50:55.114Z,95365.00
2023-04-02T06:51:54.127Z,95369.00
2023-04-02T06:52:54.196Z,95373.00
2023-04-02T06:53:55.211Z,95373.00
2023-04-02T06:54:54.263Z,95374.00
2023-04-02T06:55:55.278Z,95378.00
2023-04-02T06:56:54.359Z,95382.00
2023-04-02T06:57:54.400Z,95384.00
2023-04-02T06:58:55.504Z,95384.00
2023-04-02T06:59:55.550Z,95384.00
2023-04-02T07:00:55.600Z,95384.00
2023-04-02T07:01:55.698Z,95386.00
2023-04-02T07:02:55.716Z,95384.00
2023-04-02T07:03:55.734Z,95388.00
2023-04-02T07:04:55.919Z,95386.00
2023-04-02T07:05:56.007Z,95380.00
2023-04-02T07:06:55.919Z,95386.00
2023-04-02T07:07:55.977Z,95386.00
2023-04-02T07:08:56.033Z,95388.00
2023-04-02T07:09:56.094Z,95380.00
2023-04-02T07:10:56.222Z,95382.00
2023-04-02T07:11:56.195Z,95380.00
2023-04-02T07:12:56.278Z,95380.00
2023-04-02T07:13:56.328Z,95380.00
2023-04-02T07:14:55.359Z,95380.00
2023-04-02T07:15:56.480Z,95382.00
2023-04-02T07:16:56.520Z,95382.00
2023-04-02T07:17:56.565Z,95382.00
2023-04-02T07:18:56.637Z,95384.00
2023-04-02T07:19:55.681Z,95388.00
2023-04-02T07:20:56.782Z,95388.00
2023-04-02T07:21:56.848Z,95388.00
2023-04-02T07:22:56.885Z,95388.00
2023-04-02T07:23:56.929Z,95390.00
2023-04-02T07:24:56.012Z,95390.00
2023-04-02T07:25:57.106Z,95390.00
2023-04-02T07:26:56.116Z,95390.00
2023-04-02T07:27:57.190Z,95396.00
2023-04-02T07:28:57.252Z,95390.00
2023-04-02T07:29:57.328Z,95396.00
2023-04-02T07:30:57.374Z,95390.00
2023-04-02T07:31:57.421Z,95392.00
2023-04-02T07:32:57.469Z,95394.00
2023-04-02T07:33:57.545Z,95390.00
2023-04-02T07:34:57.585Z,95392.00
2023-04-02T07:35:56.723Z,95390.00
2023-04-02T07:36:56.712Z,95390.00
2023-04-02T07:37:57.765Z,95390.00
2023-04-02T07:38:56.838Z,95390.00
2023-04-02T07:39:57.907Z,95392.00
2023-04-02T07:40:57.948Z,95390.00
2023-04-02T07:41:58.032Z,95392.00
2023-04-02T07:42:57.110Z,95390.00
2023-04-02T07:43:57.138Z,95392.00
2023-04-02T07:44:58.200Z,95394.00
2023-04-02T07:45:58.287Z,95394.00
2023-04-02T07:46:58.388Z,95396.00
2023-04-02T07:47:58.379Z,95402.00
2023-04-02T07:48:58.450Z,95404.00
2023-04-02T07:49:58.489Z,95412.00
2023-04-02T07:50:58.537Z,95412.00
2023-04-02T07:51:58.616Z,95414.00
2023-04-02T07:52:57.666Z,95416.00
2023-04-02T07:53:58.730Z,95416.00
2023-04-02T07:54:57.776Z,95416.00
2023-04-02T07:55:58.835Z,95416.00
2023-04-02T07:56:58.913Z,95416.00
2023-04-02T07:57:58.970Z,95416.00
2023-04-02T07:58:59.021Z,95416.00
2023-04-02T07:59:59.095Z,95416.00
2023-04-02T08:00:59.125Z,95418.00
2023-04-02T08:01:58.224Z,95416.00
2023-04-02T08:02:58.375Z,95416.00
2023-04-02T08:03:58.380Z,95416.00
2023-04-02T08:04:59.403Z,95418.00
2023-04-02T08:05:59.480Z,95418.00
2023-04-02T08:06:58.512Z,95419.00
2023-04-02T08:07:59.595Z,95418.00
2023-04-02T08:08:58.657Z,95421.00
2023-04-02T08:09:59.709Z,95421.00
2023-04-02T08:10:58.782Z,95421.00
2023-04-02T08:11:58.838Z,95419.00
2023-04-02T08:12:59.887Z,95418.00
2023-04-02T08:13:59.967Z,95419.00
2023-04-02T08:15:00.019Z,95419.00
2023-04-02T08:16:00.095Z,95419.00
2023-04-02T08:17:00.223Z,95419.00
2023-04-02T08:17:59.249Z,95418.00
2023-04-02T08:19:00.253Z,95418.00
2023-04-02T08:20:00.344Z,95419.00
2023-04-02T08:21:00.384Z,95416.00
2023-04-02T08:22:00.456Z,95419.00
2023-04-02T08:23:00.553Z,95418.00
2023-04-02T08:24:00.572Z,95421.00
2023-04-02T08:25:00.621Z,95419.00
2023-04-02T08:25:59.685Z,95421.00
2023-04-02T08:27:00.762Z,95419.00
2023-04-02T08:28:00.815Z,95425.00
2023-04-02T08:29:00.885Z,95423.00
2023-04-02T08:30:01.022Z,95423.00
2023-04-02T08:31:01.099Z,95423.00
2023-04-02T08:32:00.099Z,95427.00
2023-04-02T08:33:01.188Z,95427.00
2023-04-02T08:34:00.210Z,95429.00
2023-04-02T08:35:00.243Z,95431.00
2023-04-02T08:36:01.445Z,95431.00
2023-04-02T08:37:01.397Z,95429.00
2023-04-02T08:38:01.432Z,95433.00
2023-04-02T08:39:01.487Z,95429.00
2023-04-02T08:40:00.594Z,95429.00
2023-04-02T08:41:01.629Z,95431.00
2023-04-02T08:42:01.735Z,95431.00
2023-04-02T08:43:01.734Z,95431.00
2023-04-02T08:44:01.807Z,95431.00
2023-04-02T08:45:03.941Z,95433.00
2023-04-02T08:46:01.911Z,95429.00
2023-04-02T08:47:00.847Z,95429.00
2023-04-02T08:48:01.905Z,95429.00
2023-04-02T08:49:01.822Z,95431.00
2023-04-02T08:50:00.856Z,95431.00
2023-04-02T08:51:01.818Z,95433.00
2023-04-02T08:52:01.823Z,95431.00
2023-04-02T08:53:01.800Z,95433.00
2023-04-02T08:54:01.810Z,95433.00
2023-04-02T08:55:01.795Z,95433.00
2023-04-02T08:56:01.855Z,95435.00
2023-04-02T08:57:01.956Z,95437.00
2023-04-02T08:58:01.972Z,95437.00
2023-04-02T08:59:02.061Z,95437.00
2023-04-02T09:00:02.162Z,95437.00
2023-04-02T09:01:02.186Z,95437.00
2023-04-02T09:02:01.349Z,95437.00
2023-04-02T09:03:02.367Z,95437.00
2023-04-02T09:04:02.336Z,95437.00
2023-04-02T09:05:02.504Z,95437.00
2023-04-02T09:06:02.516Z,95437.00
2023-04-02T09:07:01.525Z,95435.00
2023-04-02T09:08:01.582Z,95437.00
2023-04-02T09:09:02.640Z,95439.00
2023-04-02T09:10:01.702Z,95439.00
2023-04-02T09:11:02.787Z,95437.00
2023-04-02T09:12:02.868Z,95439.00
2023-04-02T09:13:02.889Z,95441.00
2023-04-02T09:14:02.972Z,95441.00
2023-04-02T09:15:02.005Z,95445.00
2023-04-02T09:16:03.130Z,95443.00
2023-04-02T09:17:03.172Z,95447.00
2023-04-02T09:18:03.245Z,95449.00
2023-04-02T09:19:02.275Z,95449.00
2023-04-02T09:20:03.314Z,95447.00
2023-04-02T09:21:03.360Z,95447.00
2023-04-02T09:22:02.447Z,95449.00
2023-04-02T09:23:02.555Z,95447.00
2023-04-02T09:24:04.740Z,95447.00
2023-04-02T09:25:03.782Z,95445.00
2023-04-02T09:26:05.035Z,95449.00
2023-04-02T09:27:03.877Z,95449.00
2023-04-02T09:28:02.945Z,95449.00
2023-04-02T09:29:04.043Z,95451.00
2023-04-02T09:30:04.055Z,95449.00
2023-04-02T09:31:04.996Z,95449.00
2023-04-02T09:32:03.140Z,95449.00
2023-04-02T09:33:04.180Z,95453.00
2023-04-02T09:34:04.106Z,95451.00
2023-04-02T09:35:09.585Z,95453.00
2023-04-02T09:36:04.130Z,95455.00
2023-04-02T09:37:03.070Z,95455.00
2023-04-02T09:38:04.081Z,95455.00
2023-04-02T09:39:04.068Z,95455.00
2023-04-02T09:40:04.049Z,95453.00
2023-04-02T09:41:03.050Z,95453.00
2023-04-02T09:42:06.012Z,95453.00
2023-04-02T09:43:04.025Z,95455.00
2023-04-02T09:44:04.004Z,95455.00
2023-04-02T09:45:04.014Z,95455.00
2023-04-02T09:46:03.000Z,95455.00
2023-04-02T09:47:04.162Z,95455.00
2023-04-02T09:48:04.037Z,95453.00
2023-04-02T09:49:04.021Z,95453.00
2023-04-02T09:50:03.979Z,95457.00
2023-04-02T09:51:02.979Z,95455.00
2023-04-02T09:52:03.970Z,95455.00
2023-04-02T09:53:03.964Z,95457.00
2023-04-02T09:54:04.017Z,95459.00
2023-04-02T09:55:02.994Z,95459.00
2023-04-02T09:56:03.940Z,95461.00
2023-04-02T09:57:04.020Z,95461.00
2023-04-02T09:58:03.920Z,95459.00
2023-04-02T09:59:02.936Z,95461.00
2023-04-02T10:00:02.906Z,95463.00
2023-04-02T10:01:03.942Z,95465.00
2023-04-02T10:02:02.891Z,95463.00
2023-04-02T10:03:02.900Z,95461.00
2023-04-02T10:04:03.895Z,95465.00
2023-04-02T10:05:03.854Z,95465.00
2023-04-02T10:06:03.878Z,95465.00
2023-04-02T10:07:03.994Z,95463.00
2023-04-02T10:08:04.040Z,95465.00
2023-04-02T10:09:04.070Z,95467.00
2023-04-02T10:10:04.164Z,95465.00
2023-04-02T10:11:04.186Z,95467.00
2023-04-02T10:12:03.257Z,95469.00
2023-04-02T10:13:04.327Z,95469.00
2023-04-02T10:14:04.367Z,95469.00
2023-04-02T10:15:04.427Z,95469.00
2023-04-02T10:16:04.575Z,95469.00
2023-04-02T10:17:04.564Z,95467.00
2023-04-02T10:18:03.709Z,95465.00
2023-04-02T10:19:04.646Z,95465.00
2023-04-02T10:20:03.684Z,95463.00
2023-04-02T10:21:04.765Z,95465.00
2023-04-02T10:22:03.823Z,95465.00
2023-04-02T10:23:05.419Z,95465.00
2023-04-02T10:24:05.340Z,95465.00
2023-04-02T10:25:05.102Z,95467.00
2023-04-02T10:26:05.177Z,95467.00
2023-04-02T10:27:04.217Z,95467.00
2023-04-02T10:28:05.274Z,95467.00
2023-04-02T10:29:06.269Z,95469.00
2023-04-02T10:30:04.462Z,95467.00
2023-04-02T10:31:05.545Z,95467.00
2023-04-02T10:32:05.528Z,95467.00
2023-04-02T10:33:05.683Z,95469.00
2023-04-02T10:34:05.635Z,95471.00
2023-04-02T10:35:04.681Z,95471.00
2023-04-02T10:36:04.762Z,95473.00
2023-04-02T10:37:05.770Z,95471.00
2023-04-02T10:38:05.869Z,95473.00
2023-04-02T10:39:05.871Z,95471.00
2023-04-02T10:40:05.934Z,95473.00
2023-04-02T10:41:05.972Z,95473.00
2023-04-02T10:42:06.051Z,95473.00
2023-04-02T10:43:05.088Z,95471.00
2023-04-02T10:44:16.567Z,95473.00
2023-04-02T10:45:06.135Z,95473.00
2023-04-02T10:46:06.963Z,95473.00
2023-04-02T10:47:06.124Z,95474.00
2023-04-02T10:48:05.138Z,95473.00
2023-04-02T10:49:05.156Z,95476.00
2023-04-02T10:50:06.081Z,95474.00
2023-04-02T10:51:06.076Z,95473.00
2023-04-02T10:52:06.081Z,95476.00
2023-04-02T10:53:06.076Z,95474.00
2023-04-02T10:54:06.088Z,95474.00
2023-04-02T10:55:06.084Z,95476.00
2023-04-02T10:56:06.041Z,95473.00
2023-04-02T10:57:06.119Z,95476.00
2023-04-02T10:58:06.181Z,95478.00
2023-04-02T10:59:06.210Z,95473.00
2023-04-02T11:00:06.244Z,95476.00
2023-04-02T11:01:06.347Z,95476.00
2023-04-02T11:02:06.349Z,95476.00
2023-04-02T11:03:06.526Z,95476.00
2023-04-02T11:04:06.462Z,95480.00
2023-04-02T11:05:05.536Z,95478.00
2023-04-02T11:06:05.570Z,95476.00
2023-04-02T11:07:13.975Z,95480.00
2023-04-02T11:08:06.619Z,95486.00
2023-04-02T11:09:06.615Z,95486.00
2023-04-02T11:10:05.598Z,95486.00
2023-04-02T11:11:06.594Z,95486.00
2023-04-02T11:12:06.605Z,95488.00
2023-04-02T11:13:06.588Z,95488.00
2023-04-02T11:14:05.628Z,95488.00
2023-04-02T11:15:05.561Z,95490.00
2023-04-02T11:16:06.627Z,95492.00
2023-04-02T11:17:05.550Z,95492.00
2023-04-02T11:18:05.550Z,95494.00
2023-04-02T11:19:06.590Z,95494.00
2023-04-02T11:20:06.544Z,95496.00
2023-04-02T11:21:06.555Z,95496.00
2023-04-02T11:22:06.857Z,95498.00
2023-04-02T11:23:06.515Z,95498.00
2023-04-02T11:24:06.517Z,95498.00
2023-04-02T11:25:06.503Z,95500.00
2023-04-02T11:26:05.480Z,95500.00
2023-04-02T11:27:06.513Z,95500.00
2023-04-02T11:28:06.502Z,95504.00
2023-04-02T11:29:06.512Z,95506.00
2023-04-02T11:30:06.574Z,95508.00
2023-04-02T11:31:05.492Z,95508.00
2023-04-02T11:32:06.486Z,95508.00
2023-04-02T11:33:06.616Z,95510.00
2023-04-02T11:34:05.602Z,95510.00
2023-04-02T11:35:07.777Z,95512.00
2023-04-02T11:36:06.739Z,95512.00
2023-04-02T11:37:06.778Z,95513.00
2023-04-02T11:38:06.815Z,95513.00
2023-04-02T11:39:16.600Z,95513.00
2023-04-02T11:40:06.887Z,95513.00
2023-04-02T11:41:06.862Z,95515.00
2023-04-02T11:42:06.852Z,95515.00
2023-04-02T11:43:06.845Z,95515.00
2023-04-02T11:44:05.843Z,95517.00
2023-04-02T11:45:06.847Z,95517.00